sensor_id;sensor_type;location;lat;lon;timestamp;P1;durP1;ratioP1;P2;durP2;ratioP2
16113;SDS011;8161;-33.910;151.156;2023-10-13T00:01:55;0.90;;;0.40;;
16113;SDS011;8161;-33.910;151.156;2023-10-13T00:04:27;1.00;;;0.22;;
16113;SDS011;8161;-33.910;151.156;2023-10-13T00:06:55;0.40;;;0.30;;
16113;SDS011;8161;-33.910;151.156;2023-10-13T00:09:23;0.80;;;0.40;;
16113;SDS011;8161;-33.910;151.156;2023-10-13T00:11:51;1.45;;;0.50;;
16113;SDS011;8161;-33.910;151.156;2023-10-13T00:14:19;2.00;;;0.38;;
16113;SDS011;8161;-33.910;151.156;2023-10-13T00:16:47;0.57;;;0.20;;
16113;SDS011;8161;-33.910;151.156;2023-10-13T00:19:30;0.80;;;0.50;;
16113;SDS011;8161;-33.910;151.156;2023-10-13T00:22:25;1.47;;;0.30;;
16113;SDS011;8161;-33.910;151.156;2023-10-13T00:24:56;0.30;;;0.30;;
16113;SDS011;8161;-33.910;151.156;2023-10-13T00:27:29;2.97;;;0.47;;
16113;SDS011;8161;-33.910;151.156;2023-10-13T00:30:03;1.38;;;0.40;;
16113;SDS011;8161;-33.910;151.156;2023-10-13T00:32:44;0.40;;;0.30;;
16113;SDS011;8161;-33.910;151.156;2023-10-13T00:35:20;1.20;;;0.30;;
16113;SDS011;8161;-33.910;151.156;2023-10-13T00:37:53;1.75;;;0.40;;
16113;SDS011;8161;-33.910;151.156;2023-10-13T00:40:29;1.45;;;0.30;;
16113;SDS011;8161;-33.910;151.156;2023-10-13T00:42:58;2.40;;;0.40;;
16113;SDS011;8161;-33.910;151.156;2023-10-13T00:45:53;0.87;;;0.20;;
16113;SDS011;8161;-33.910;151.156;2023-10-13T00:48:40;0.87;;;0.40;;
16113;SDS011;8161;-33.910;151.156;2023-10-13T00:51:17;1.07;;;0.40;;
16113;SDS011;8161;-33.910;151.156;2023-10-13T00:54:08;0.63;;;0.30;;
16113;SDS011;8161;-33.910;151.156;2023-10-13T00:56:44;0.52;;;0.30;;
16113;SDS011;8161;-33.910;151.156;2023-10-13T00:59:15;1.15;;;0.30;;
16113;SDS011;8161;-33.910;151.156;2023-10-13T01:01:43;1.08;;;0.40;;
16113;SDS011;8161;-33.910;151.156;2023-10-13T01:04:10;1.25;;;0.25;;
16113;SDS011;8161;-33.910;151.156;2023-10-13T01:06:39;1.35;;;0.22;;
16113;SDS011;8161;-33.910;151.156;2023-10-13T01:09:07;1.52;;;0.40;;
16113;SDS011;8161;-33.910;151.156;2023-10-13T01:11:48;1.35;;;0.35;;
16113;SDS011;8161;-33.910;151.156;2023-10-13T01:14:20;0.80;;;0.25;;
16113;SDS011;8161;-33.910;151.156;2023-10-13T01:16:52;0.93;;;0.40;;
16113;SDS011;8161;-33.910;151.156;2023-10-13T01:19:20;1.63;;;0.50;;
16113;SDS011;8161;-33.910;151.156;2023-10-13T01:21:50;0.40;;;0.22;;
16113;SDS011;8161;-33.910;151.156;2023-10-13T01:24:27;2.33;;;0.60;;
16113;SDS011;8161;-33.910;151.156;2023-10-13T01:27:09;1.65;;;0.50;;
16113;SDS011;8161;-33.910;151.156;2023-10-13T01:29:50;1.20;;;0.35;;
16113;SDS011;8161;-33.910;151.156;2023-10-13T01:32:27;1.15;;;0.40;;
16113;SDS011;8161;-33.910;151.156;2023-10-13T01:34:54;1.10;;;0.35;;
16113;SDS011;8161;-33.910;151.156;2023-10-13T01:37:23;0.85;;;0.35;;
16113;SDS011;8161;-33.910;151.156;2023-10-13T01:39:50;0.98;;;0.35;;
16113;SDS011;8161;-33.910;151.156;2023-10-13T01:42:17;0.70;;;0.40;;
16113;SDS011;8161;-33.910;151.156;2023-10-13T01:44:50;1.35;;;0.40;;
16113;SDS011;8161;-33.910;151.156;2023-10-13T01:47:21;0.50;;;0.30;;
16113;SDS011;8161;-33.910;151.156;2023-10-13T01:49:49;2.33;;;0.30;;
16113;SDS011;8161;-33.910;151.156;2023-10-13T01:52:16;0.43;;;0.28;;
16113;SDS011;8161;-33.910;151.156;2023-10-13T01:54:44;1.70;;;0.70;;
16113;SDS011;8161;-33.910;151.156;2023-10-13T01:57:14;1.73;;;0.40;;
16113;SDS011;8161;-33.910;151.156;2023-10-13T01:59:44;0.60;;;0.30;;
16113;SDS011;8161;-33.910;151.156;2023-10-13T02:02:15;3.67;;;0.50;;
16113;SDS011;8161;-33.910;151.156;2023-10-13T02:04:54;1.00;;;0.40;;
16113;SDS011;8161;-33.910;151.156;2023-10-13T02:07:28;1.27;;;0.60;;
16113;SDS011;8161;-33.910;151.156;2023-10-13T02:09:56;1.30;;;0.65;;
16113;SDS011;8161;-33.910;151.156;2023-10-13T02:12:23;2.10;;;1.00;;
16113;SDS011;8161;-33.910;151.156;2023-10-13T02:15:02;1.30;;;0.40;;
16113;SDS011;8161;-33.910;151.156;2023-10-13T02:17:30;0.40;;;0.20;;
16113;SDS011;8161;-33.910;151.156;2023-10-13T02:20:07;0.98;;;0.38;;
16113;SDS011;8161;-33.910;151.156;2023-10-13T02:22:40;0.63;;;0.30;;
16113;SDS011;8161;-33.910;151.156;2023-10-13T02:25:18;0.98;;;0.40;;
16113;SDS011;8161;-33.910;151.156;2023-10-13T02:27:59;1.10;;;0.47;;
16113;SDS011;8161;-33.910;151.156;2023-10-13T02:30:26;1.13;;;0.38;;
16113;SDS011;8161;-33.910;151.156;2023-10-13T02:32:54;0.93;;;0.40;;
16113;SDS011;8161;-33.910;151.156;2023-10-13T02:35:23;0.52;;;0.30;;
16113;SDS011;8161;-33.910;151.156;2023-10-13T02:38:07;4.03;;;0.60;;
16113;SDS011;8161;-33.910;151.156;2023-10-13T02:40:38;1.00;;;0.30;;
16113;SDS011;8161;-33.910;151.156;2023-10-13T02:43:05;2.22;;;0.40;;
16113;SDS011;8161;-33.910;151.156;2023-10-13T02:45:33;1.48;;;0.40;;
16113;SDS011;8161;-33.910;151.156;2023-10-13T02:48:04;0.60;;;0.30;;
16113;SDS011;8161;-33.910;151.156;2023-10-13T02:50:43;2.03;;;0.40;;
16113;SDS011;8161;-33.910;151.156;2023-10-13T02:53:11;1.77;;;0.32;;
16113;SDS011;8161;-33.910;151.156;2023-10-13T02:55:48;1.90;;;0.60;;
16113;SDS011;8161;-33.910;151.156;2023-10-13T02:58:19;1.05;;;0.40;;
16113;SDS011;8161;-33.910;151.156;2023-10-13T03:00:46;2.33;;;0.50;;
16113;SDS011;8161;-33.910;151.156;2023-10-13T03:03:13;1.40;;;0.50;;
16113;SDS011;8161;-33.910;151.156;2023-10-13T03:05:44;1.20;;;0.60;;
16113;SDS011;8161;-33.910;151.156;2023-10-13T03:08:11;2.03;;;0.40;;
16113;SDS011;8161;-33.910;151.156;2023-10-13T03:10:51;2.20;;;0.47;;
16113;SDS011;8161;-33.910;151.156;2023-10-13T03:13:20;1.30;;;0.50;;
16113;SDS011;8161;-33.910;151.156;2023-10-13T03:15:47;2.33;;;0.65;;
16113;SDS011;8161;-33.910;151.156;2023-10-13T03:18:14;1.10;;;0.52;;
16113;SDS011;8161;-33.910;151.156;2023-10-13T03:20:43;2.85;;;0.50;;
16113;SDS011;8161;-33.910;151.156;2023-10-13T03:23:15;1.40;;;0.60;;
16113;SDS011;8161;-33.910;151.156;2023-10-13T03:25:43;0.90;;;0.30;;
16113;SDS011;8161;-33.910;151.156;2023-10-13T03:28:15;1.90;;;0.50;;
16113;SDS011;8161;-33.910;151.156;2023-10-13T03:30:45;1.42;;;0.50;;
16113;SDS011;8161;-33.910;151.156;2023-10-13T03:33:18;1.02;;;0.52;;
16113;SDS011;8161;-33.910;151.156;2023-10-13T03:35:51;2.10;;;0.60;;
16113;SDS011;8161;-33.910;151.156;2023-10-13T03:38:31;1.80;;;0.60;;
16113;SDS011;8161;-33.910;151.156;2023-10-13T03:41:02;3.22;;;1.38;;
16113;SDS011;8161;-33.910;151.156;2023-10-13T03:43:33;2.38;;;0.70;;
16113;SDS011;8161;-33.910;151.156;2023-10-13T03:46:14;2.30;;;0.85;;
16113;SDS011;8161;-33.910;151.156;2023-10-13T03:48:47;1.90;;;0.93;;
16113;SDS011;8161;-33.910;151.156;2023-10-13T03:51:24;1.08;;;0.40;;
16113;SDS011;8161;-33.910;151.156;2023-10-13T03:53:56;2.90;;;0.50;;
16113;SDS011;8161;-33.910;151.156;2023-10-13T03:56:24;2.43;;;0.43;;
16113;SDS011;8161;-33.910;151.156;2023-10-13T03:58:56;2.00;;;0.40;;
16113;SDS011;8161;-33.910;151.156;2023-10-13T04:01:26;1.73;;;0.40;;
16113;SDS011;8161;-33.910;151.156;2023-10-13T04:04:07;1.83;;;0.40;;
16113;SDS011;8161;-33.910;151.156;2023-10-13T04:06:38;1.75;;;0.50;;
16113;SDS011;8161;-33.910;151.156;2023-10-13T04:09:14;1.35;;;0.38;;
16113;SDS011;8161;-33.910;151.156;2023-10-13T04:11:58;1.00;;;0.40;;
16113;SDS011;8161;-33.910;151.156;2023-10-13T04:14:43;0.95;;;0.40;;
16113;SDS011;8161;-33.910;151.156;2023-10-13T04:17:24;1.77;;;0.40;;
16113;SDS011;8161;-33.910;151.156;2023-10-13T04:19:53;1.35;;;0.70;;
16113;SDS011;8161;-33.910;151.156;2023-10-13T04:22:34;2.22;;;0.60;;
16113;SDS011;8161;-33.910;151.156;2023-10-13T04:25:22;1.00;;;0.40;;
16113;SDS011;8161;-33.910;151.156;2023-10-13T04:28:01;1.53;;;0.37;;
16113;SDS011;8161;-33.910;151.156;2023-10-13T04:30:45;1.80;;;0.47;;
16113;SDS011;8161;-33.910;151.156;2023-10-13T04:33:22;3.13;;;0.50;;
16113;SDS011;8161;-33.910;151.156;2023-10-13T04:36:10;2.00;;;0.40;;
16113;SDS011;8161;-33.910;151.156;2023-10-13T04:38:51;1.25;;;0.50;;
16113;SDS011;8161;-33.910;151.156;2023-10-13T04:41:29;1.80;;;0.40;;
16113;SDS011;8161;-33.910;151.156;2023-10-13T04:44:10;1.42;;;0.50;;
16113;SDS011;8161;-33.910;151.156;2023-10-13T04:46:52;1.38;;;0.40;;
16113;SDS011;8161;-33.910;151.156;2023-10-13T04:49:34;1.65;;;0.40;;
16113;SDS011;8161;-33.910;151.156;2023-10-13T04:52:15;1.42;;;0.55;;
16113;SDS011;8161;-33.910;151.156;2023-10-13T04:54:56;1.00;;;0.40;;
16113;SDS011;8161;-33.910;151.156;2023-10-13T04:57:35;1.88;;;0.60;;
16113;SDS011;8161;-33.910;151.156;2023-10-13T05:00:11;1.73;;;0.40;;
16113;SDS011;8161;-33.910;151.156;2023-10-13T05:02:45;1.00;;;0.50;;
16113;SDS011;8161;-33.910;151.156;2023-10-13T05:05:27;1.57;;;0.70;;
16113;SDS011;8161;-33.910;151.156;2023-10-13T05:08:08;1.45;;;0.32;;
16113;SDS011;8161;-33.910;151.156;2023-10-13T05:10:57;1.80;;;0.40;;
16113;SDS011;8161;-33.910;151.156;2023-10-13T05:13:44;1.70;;;0.50;;
16113;SDS011;8161;-33.910;151.156;2023-10-13T05:16:26;2.83;;;0.50;;
16113;SDS011;8161;-33.910;151.156;2023-10-13T05:19:07;1.13;;;0.50;;
16113;SDS011;8161;-33.910;151.156;2023-10-13T05:21:47;1.05;;;0.40;;
16113;SDS011;8161;-33.910;151.156;2023-10-13T05:24:28;1.15;;;0.50;;
16113;SDS011;8161;-33.910;151.156;2023-10-13T05:27:12;1.23;;;0.40;;
16113;SDS011;8161;-33.910;151.156;2023-10-13T05:29:52;2.10;;;0.57;;
16113;SDS011;8161;-33.910;151.156;2023-10-13T05:32:33;3.05;;;0.50;;
16113;SDS011;8161;-33.910;151.156;2023-10-13T05:35:13;1.40;;;0.40;;
16113;SDS011;8161;-33.910;151.156;2023-10-13T05:37:54;3.08;;;0.80;;
16113;SDS011;8161;-33.910;151.156;2023-10-13T05:40:35;1.20;;;0.30;;
16113;SDS011;8161;-33.910;151.156;2023-10-13T05:43:14;1.50;;;0.52;;
16113;SDS011;8161;-33.910;151.156;2023-10-13T05:46:01;1.57;;;0.60;;
16113;SDS011;8161;-33.910;151.156;2023-10-13T05:48:42;1.38;;;0.50;;
16113;SDS011;8161;-33.910;151.156;2023-10-13T05:51:38;1.27;;;0.60;;
16113;SDS011;8161;-33.910;151.156;2023-10-13T05:54:05;0.88;;;0.50;;
16113;SDS011;8161;-33.910;151.156;2023-10-13T05:56:42;2.33;;;0.57;;
16113;SDS011;8161;-33.910;151.156;2023-10-13T05:59:27;2.38;;;0.50;;
16113;SDS011;8161;-33.910;151.156;2023-10-13T06:02:08;1.23;;;0.40;;
16113;SDS011;8161;-33.910;151.156;2023-10-13T06:04:49;3.05;;;0.50;;
16113;SDS011;8161;-33.910;151.156;2023-10-13T06:07:29;1.50;;;0.60;;
16113;SDS011;8161;-33.910;151.156;2023-10-13T06:10:10;2.47;;;0.60;;
16113;SDS011;8161;-33.910;151.156;2023-10-13T06:12:51;1.90;;;0.60;;
16113;SDS011;8161;-33.910;151.156;2023-10-13T06:15:35;1.30;;;0.40;;
16113;SDS011;8161;-33.910;151.156;2023-10-13T06:18:16;0.93;;;0.40;;
16113;SDS011;8161;-33.910;151.156;2023-10-13T06:20:56;1.42;;;0.57;;
16113;SDS011;8161;-33.910;151.156;2023-10-13T06:23:37;1.00;;;0.60;;
16113;SDS011;8161;-33.910;151.156;2023-10-13T06:26:17;1.50;;;0.43;;
16113;SDS011;8161;-33.910;151.156;2023-10-13T06:28:58;1.13;;;0.50;;
16113;SDS011;8161;-33.910;151.156;2023-10-13T06:31:25;2.03;;;0.60;;
16113;SDS011;8161;-33.910;151.156;2023-10-13T06:33:52;1.25;;;0.50;;
16113;SDS011;8161;-33.910;151.156;2023-10-13T06:36:21;1.23;;;0.50;;
16113;SDS011;8161;-33.910;151.156;2023-10-13T06:38:48;3.53;;;0.70;;
16113;SDS011;8161;-33.910;151.156;2023-10-13T06:41:35;7.82;;;3.05;;
16113;SDS011;8161;-33.910;151.156;2023-10-13T06:44:06;3.05;;;1.10;;
16113;SDS011;8161;-33.910;151.156;2023-10-13T06:46:40;2.50;;;0.90;;
16113;SDS011;8161;-33.910;151.156;2023-10-13T06:49:08;1.70;;;0.65;;
16113;SDS011;8161;-33.910;151.156;2023-10-13T06:51:38;1.48;;;0.80;;
16113;SDS011;8161;-33.910;151.156;2023-10-13T06:54:05;2.53;;;0.90;;
16113;SDS011;8161;-33.910;151.156;2023-10-13T06:56:45;2.50;;;1.20;;
16113;SDS011;8161;-33.910;151.156;2023-10-13T06:59:12;4.45;;;1.70;;
16113;SDS011;8161;-33.910;151.156;2023-10-13T07:01:40;2.95;;;1.10;;
16113;SDS011;8161;-33.910;151.156;2023-10-13T07:04:08;4.57;;;1.40;;
16113;SDS011;8161;-33.910;151.156;2023-10-13T07:06:42;2.35;;;1.10;;
16113;SDS011;8161;-33.910;151.156;2023-10-13T07:09:16;2.67;;;1.30;;
16113;SDS011;8161;-33.910;151.156;2023-10-13T07:11:58;3.05;;;1.00;;
16113;SDS011;8161;-33.910;151.156;2023-10-13T07:14:27;1.23;;;0.50;;
16113;SDS011;8161;-33.910;151.156;2023-10-13T07:16:59;1.20;;;0.68;;
16113;SDS011;8161;-33.910;151.156;2023-10-13T07:19:28;2.22;;;0.80;;
16113;SDS011;8161;-33.910;151.156;2023-10-13T07:21:56;3.03;;;0.80;;
16113;SDS011;8161;-33.910;151.156;2023-10-13T07:24:25;3.45;;;1.00;;
16113;SDS011;8161;-33.910;151.156;2023-10-13T07:26:59;2.95;;;1.10;;
16113;SDS011;8161;-33.910;151.156;2023-10-13T07:29:31;1.98;;;1.00;;
16113;SDS011;8161;-33.910;151.156;2023-10-13T07:32:02;3.28;;;0.98;;
16113;SDS011;8161;-33.910;151.156;2023-10-13T07:34:38;2.58;;;1.05;;
16113;SDS011;8161;-33.910;151.156;2023-10-13T07:37:05;3.22;;;1.10;;
16113;SDS011;8161;-33.910;151.156;2023-10-13T07:39:39;2.38;;;0.80;;
16113;SDS011;8161;-33.910;151.156;2023-10-13T07:42:08;1.77;;;0.87;;
16113;SDS011;8161;-33.910;151.156;2023-10-13T07:44:45;2.25;;;0.90;;
16113;SDS011;8161;-33.910;151.156;2023-10-13T07:47:12;2.05;;;1.05;;
16113;SDS011;8161;-33.910;151.156;2023-10-13T07:49:40;9.10;;;1.40;;
16113;SDS011;8161;-33.910;151.156;2023-10-13T07:52:09;1.40;;;0.82;;
16113;SDS011;8161;-33.910;151.156;2023-10-13T07:54:47;2.30;;;0.85;;
16113;SDS011;8161;-33.910;151.156;2023-10-13T07:57:25;3.30;;;1.20;;
16113;SDS011;8161;-33.910;151.156;2023-10-13T07:59:55;3.92;;;1.30;;
16113;SDS011;8161;-33.910;151.156;2023-10-13T08:02:35;3.40;;;1.50;;
16113;SDS011;8161;-33.910;151.156;2023-10-13T08:05:16;3.25;;;1.08;;
16113;SDS011;8161;-33.910;151.156;2023-10-13T08:08:05;3.22;;;1.20;;
16113;SDS011;8161;-33.910;151.156;2023-10-13T08:10:40;2.20;;;1.20;;
16113;SDS011;8161;-33.910;151.156;2023-10-13T08:13:11;3.17;;;1.30;;
16113;SDS011;8161;-33.910;151.156;2023-10-13T08:15:41;2.17;;;1.10;;
16113;SDS011;8161;-33.910;151.156;2023-10-13T08:18:19;2.28;;;1.23;;
16113;SDS011;8161;-33.910;151.156;2023-10-13T08:21:00;2.50;;;1.10;;
16113;SDS011;8161;-33.910;151.156;2023-10-13T08:23:41;3.03;;;1.35;;
16113;SDS011;8161;-33.910;151.156;2023-10-13T08:26:22;3.08;;;1.50;;
16113;SDS011;8161;-33.910;151.156;2023-10-13T08:29:05;3.50;;;1.80;;
16113;SDS011;8161;-33.910;151.156;2023-10-13T08:31:49;4.03;;;1.60;;
16113;SDS011;8161;-33.910;151.156;2023-10-13T08:34:30;3.47;;;1.30;;
16113;SDS011;8161;-33.910;151.156;2023-10-13T08:37:11;2.13;;;1.00;;
16113;SDS011;8161;-33.910;151.156;2023-10-13T08:39:48;2.72;;;1.08;;
16113;SDS011;8161;-33.910;151.156;2023-10-13T08:42:37;2.83;;;1.20;;
16113;SDS011;8161;-33.910;151.156;2023-10-13T08:45:11;2.30;;;1.50;;
16113;SDS011;8161;-33.910;151.156;2023-10-13T08:47:53;4.93;;;1.73;;
16113;SDS011;8161;-33.910;151.156;2023-10-13T08:50:33;2.53;;;1.35;;
16113;SDS011;8161;-33.910;151.156;2023-10-13T08:53:19;2.65;;;1.20;;
16113;SDS011;8161;-33.910;151.156;2023-10-13T08:58:49;2.38;;;1.27;;
16113;SDS011;8161;-33.910;151.156;2023-10-13T09:04:04;3.20;;;1.30;;
16113;SDS011;8161;-33.910;151.156;2023-10-13T09:09:33;2.08;;;0.80;;
16113;SDS011;8161;-33.910;151.156;2023-10-13T09:12:23;2.22;;;0.90;;
16113;SDS011;8161;-33.910;151.156;2023-10-13T09:15:00;1.70;;;0.63;;
16113;SDS011;8161;-33.910;151.156;2023-10-13T09:17:52;2.17;;;0.80;;
16113;SDS011;8161;-33.910;151.156;2023-10-13T09:20:30;2.53;;;0.82;;
16113;SDS011;8161;-33.910;151.156;2023-10-13T09:23:07;2.10;;;0.90;;
16113;SDS011;8161;-33.910;151.156;2023-10-13T09:25:38;2.70;;;0.80;;
16113;SDS011;8161;-33.910;151.156;2023-10-13T09:28:29;4.22;;;0.85;;
16113;SDS011;8161;-33.910;151.156;2023-10-13T09:30:56;1.97;;;0.80;;
16113;SDS011;8161;-33.910;151.156;2023-10-13T09:33:24;1.00;;;0.60;;
16113;SDS011;8161;-33.910;151.156;2023-10-13T09:36:05;4.10;;;1.20;;
16113;SDS011;8161;-33.910;151.156;2023-10-13T09:38:36;1.63;;;0.60;;
16113;SDS011;8161;-33.910;151.156;2023-10-13T09:41:13;3.07;;;0.87;;
16113;SDS011;8161;-33.910;151.156;2023-10-13T09:43:46;3.08;;;0.63;;
16113;SDS011;8161;-33.910;151.156;2023-10-13T09:46:20;2.03;;;0.52;;
16113;SDS011;8161;-33.910;151.156;2023-10-13T09:48:54;2.72;;;0.65;;
16113;SDS011;8161;-33.910;151.156;2023-10-13T09:51:33;3.20;;;0.73;;
16113;SDS011;8161;-33.910;151.156;2023-10-13T09:54:03;3.03;;;0.57;;
16113;SDS011;8161;-33.910;151.156;2023-10-13T09:57:10;2.72;;;0.90;;
16113;SDS011;8161;-33.910;151.156;2023-10-13T09:59:45;4.15;;;1.02;;
16113;SDS011;8161;-33.910;151.156;2023-10-13T10:02:18;4.40;;;1.10;;
16113;SDS011;8161;-33.910;151.156;2023-10-13T10:04:54;2.08;;;0.75;;
16113;SDS011;8161;-33.910;151.156;2023-10-13T10:07:38;4.70;;;1.02;;
16113;SDS011;8161;-33.910;151.156;2023-10-13T10:10:20;3.33;;;1.38;;
16113;SDS011;8161;-33.910;151.156;2023-10-13T10:15:32;2.03;;;0.60;;
16113;SDS011;8161;-33.910;151.156;2023-10-13T10:18:21;1.73;;;0.65;;
16113;SDS011;8161;-33.910;151.156;2023-10-13T10:21:02;2.30;;;0.60;;
16113;SDS011;8161;-33.910;151.156;2023-10-13T10:23:35;2.70;;;0.85;;
16113;SDS011;8161;-33.910;151.156;2023-10-13T10:28:50;2.10;;;0.60;;
16113;SDS011;8161;-33.910;151.156;2023-10-13T10:31:19;2.15;;;0.60;;
16113;SDS011;8161;-33.910;151.156;2023-10-13T10:34:10;2.22;;;0.55;;
16113;SDS011;8161;-33.910;151.156;2023-10-13T10:36:39;0.80;;;0.40;;
16113;SDS011;8161;-33.910;151.156;2023-10-13T10:39:08;2.60;;;0.55;;
16113;SDS011;8161;-33.910;151.156;2023-10-13T10:41:37;1.35;;;0.60;;
16113;SDS011;8161;-33.910;151.156;2023-10-13T10:44:17;3.67;;;0.60;;
16113;SDS011;8161;-33.910;151.156;2023-10-13T10:46:52;1.77;;;0.50;;
16113;SDS011;8161;-33.910;151.156;2023-10-13T10:49:26;2.30;;;0.50;;
16113;SDS011;8161;-33.910;151.156;2023-10-13T10:51:57;2.33;;;0.60;;
16113;SDS011;8161;-33.910;151.156;2023-10-13T10:54:31;1.40;;;0.50;;
16113;SDS011;8161;-33.910;151.156;2023-10-13T10:56:59;2.28;;;0.50;;
16113;SDS011;8161;-33.910;151.156;2023-10-13T10:59:39;2.00;;;0.65;;
16113;SDS011;8161;-33.910;151.156;2023-10-13T11:02:09;1.90;;;0.60;;
16113;SDS011;8161;-33.910;151.156;2023-10-13T11:04:41;1.67;;;0.60;;
16113;SDS011;8161;-33.910;151.156;2023-10-13T11:07:25;3.70;;;0.85;;
16113;SDS011;8161;-33.910;151.156;2023-10-13T11:09:54;2.03;;;0.50;;
16113;SDS011;8161;-33.910;151.156;2023-10-13T11:12:53;2.13;;;0.70;;
16113;SDS011;8161;-33.910;151.156;2023-10-13T11:15:21;2.13;;;0.80;;
16113;SDS011;8161;-33.910;151.156;2023-10-13T11:17:51;1.85;;;0.80;;
16113;SDS011;8161;-33.910;151.156;2023-10-13T11:20:24;2.05;;;0.70;;
16113;SDS011;8161;-33.910;151.156;2023-10-13T11:22:52;1.23;;;0.50;;
16113;SDS011;8161;-33.910;151.156;2023-10-13T11:25:23;1.80;;;0.60;;
16113;SDS011;8161;-33.910;151.156;2023-10-13T11:30:49;2.75;;;0.75;;
16113;SDS011;8161;-33.910;151.156;2023-10-13T11:33:17;2.67;;;0.50;;
16113;SDS011;8161;-33.910;151.156;2023-10-13T11:35:51;3.80;;;1.00;;
16113;SDS011;8161;-33.910;151.156;2023-10-13T11:38:22;2.63;;;1.10;;
16113;SDS011;8161;-33.910;151.156;2023-10-13T11:40:57;2.08;;;0.80;;
16113;SDS011;8161;-33.910;151.156;2023-10-13T11:46:27;2.80;;;0.85;;
16113;SDS011;8161;-33.910;151.156;2023-10-13T11:49:03;2.65;;;0.60;;
16113;SDS011;8161;-33.910;151.156;2023-10-13T11:51:40;1.67;;;0.60;;
16113;SDS011;8161;-33.910;151.156;2023-10-13T11:54:10;2.15;;;0.63;;
16113;SDS011;8161;-33.910;151.156;2023-10-13T11:56:41;2.95;;;0.63;;
16113;SDS011;8161;-33.910;151.156;2023-10-13T11:59:10;1.52;;;0.50;;
16113;SDS011;8161;-33.910;151.156;2023-10-13T12:01:52;2.17;;;0.65;;
16113;SDS011;8161;-33.910;151.156;2023-10-13T12:04:33;2.20;;;0.50;;
16113;SDS011;8161;-33.910;151.156;2023-10-13T12:07:10;2.75;;;0.60;;
16113;SDS011;8161;-33.910;151.156;2023-10-13T12:09:43;1.88;;;0.50;;
16113;SDS011;8161;-33.910;151.156;2023-10-13T12:12:20;2.20;;;0.50;;
16113;SDS011;8161;-33.910;151.156;2023-10-13T12:14:47;2.72;;;0.70;;
16113;SDS011;8161;-33.910;151.156;2023-10-13T12:17:34;3.13;;;0.70;;
16113;SDS011;8161;-33.910;151.156;2023-10-13T12:20:02;3.38;;;0.80;;
16113;SDS011;8161;-33.910;151.156;2023-10-13T12:22:31;3.45;;;1.30;;
16113;SDS011;8161;-33.910;151.156;2023-10-13T12:25:05;4.43;;;1.33;;
16113;SDS011;8161;-33.910;151.156;2023-10-13T12:27:52;4.03;;;0.80;;
16113;SDS011;8161;-33.910;151.156;2023-10-13T12:30:23;2.15;;;0.88;;
16113;SDS011;8161;-33.910;151.156;2023-10-13T12:33:05;1.70;;;0.80;;
16113;SDS011;8161;-33.910;151.156;2023-10-13T12:35:41;2.70;;;1.40;;
16113;SDS011;8161;-33.910;151.156;2023-10-13T12:38:31;2.60;;;0.90;;
16113;SDS011;8161;-33.910;151.156;2023-10-13T12:41:15;4.78;;;1.00;;
16113;SDS011;8161;-33.910;151.156;2023-10-13T12:43:56;3.03;;;0.63;;
16113;SDS011;8161;-33.910;151.156;2023-10-13T12:46:37;3.22;;;0.65;;
16113;SDS011;8161;-33.910;151.156;2023-10-13T12:49:17;1.73;;;0.50;;
16113;SDS011;8161;-33.910;151.156;2023-10-13T12:52:00;2.17;;;0.60;;
16113;SDS011;8161;-33.910;151.156;2023-10-13T12:54:28;2.03;;;0.60;;
16113;SDS011;8161;-33.910;151.156;2023-10-13T12:57:04;2.17;;;0.60;;
16113;SDS011;8161;-33.910;151.156;2023-10-13T12:59:35;2.07;;;0.67;;
16113;SDS011;8161;-33.910;151.156;2023-10-13T13:02:04;1.48;;;0.70;;
16113;SDS011;8161;-33.910;151.156;2023-10-13T13:04:33;1.98;;;0.47;;
16113;SDS011;8161;-33.910;151.156;2023-10-13T13:07:02;2.38;;;0.52;;
16113;SDS011;8161;-33.910;151.156;2023-10-13T13:09:30;3.40;;;0.80;;
16113;SDS011;8161;-33.910;151.156;2023-10-13T13:11:58;2.38;;;0.52;;
16113;SDS011;8161;-33.910;151.156;2023-10-13T13:14:25;1.60;;;0.50;;
16113;SDS011;8161;-33.910;151.156;2023-10-13T13:16:55;1.47;;;0.50;;
16113;SDS011;8161;-33.910;151.156;2023-10-13T13:19:40;2.25;;;0.50;;
16113;SDS011;8161;-33.910;151.156;2023-10-13T13:22:08;2.03;;;0.50;;
16113;SDS011;8161;-33.910;151.156;2023-10-13T13:24:39;2.20;;;0.60;;
16113;SDS011;8161;-33.910;151.156;2023-10-13T13:27:10;2.10;;;0.53;;
16113;SDS011;8161;-33.910;151.156;2023-10-13T13:29:43;2.53;;;0.70;;
16113;SDS011;8161;-33.910;151.156;2023-10-13T13:32:11;3.40;;;0.50;;
16113;SDS011;8161;-33.910;151.156;2023-10-13T13:34:49;2.00;;;0.50;;
16113;SDS011;8161;-33.910;151.156;2023-10-13T13:37:31;1.65;;;0.50;;
16113;SDS011;8161;-33.910;151.156;2023-10-13T13:39:58;2.35;;;0.60;;
16113;SDS011;8161;-33.910;151.156;2023-10-13T13:42:39;1.90;;;0.60;;
16113;SDS011;8161;-33.910;151.156;2023-10-13T13:48:01;1.42;;;0.50;;
16113;SDS011;8161;-33.910;151.156;2023-10-13T13:50:33;2.70;;;0.50;;
16113;SDS011;8161;-33.910;151.156;2023-10-13T13:53:06;1.73;;;0.50;;
16113;SDS011;8161;-33.910;151.156;2023-10-13T13:55:37;2.43;;;0.40;;
16113;SDS011;8161;-33.910;151.156;2023-10-13T13:58:05;1.30;;;0.50;;
16113;SDS011;8161;-33.910;151.156;2023-10-13T14:00:34;1.52;;;0.43;;
16113;SDS011;8161;-33.910;151.156;2023-10-13T14:03:04;4.43;;;0.52;;
16113;SDS011;8161;-33.910;151.156;2023-10-13T14:05:41;2.00;;;0.65;;
16113;SDS011;8161;-33.910;151.156;2023-10-13T14:08:08;1.60;;;0.43;;
16113;SDS011;8161;-33.910;151.156;2023-10-13T14:10:40;1.95;;;0.50;;
16113;SDS011;8161;-33.910;151.156;2023-10-13T14:13:21;3.05;;;0.50;;
16113;SDS011;8161;-33.910;151.156;2023-10-13T14:16:08;2.50;;;0.60;;
16113;SDS011;8161;-33.910;151.156;2023-10-13T14:18:45;2.10;;;0.60;;
16113;SDS011;8161;-33.910;151.156;2023-10-13T14:21:13;1.20;;;0.50;;
16113;SDS011;8161;-33.910;151.156;2023-10-13T14:23:47;1.52;;;0.40;;
16113;SDS011;8161;-33.910;151.156;2023-10-13T14:26:19;2.90;;;0.65;;
16113;SDS011;8161;-33.910;151.156;2023-10-13T14:28:51;1.25;;;0.40;;
16113;SDS011;8161;-33.910;151.156;2023-10-13T14:31:27;1.30;;;0.32;;
16113;SDS011;8161;-33.910;151.156;2023-10-13T14:33:55;1.23;;;0.43;;
16113;SDS011;8161;-33.910;151.156;2023-10-13T14:36:23;2.30;;;0.60;;
16113;SDS011;8161;-33.910;151.156;2023-10-13T14:38:56;2.78;;;0.60;;
16113;SDS011;8161;-33.910;151.156;2023-10-13T14:41:24;0.75;;;0.25;;
16113;SDS011;8161;-33.910;151.156;2023-10-13T14:43:51;2.20;;;0.50;;
16113;SDS011;8161;-33.910;151.156;2023-10-13T14:46:22;2.83;;;0.50;;
16113;SDS011;8161;-33.910;151.156;2023-10-13T14:48:52;1.70;;;0.60;;
16113;SDS011;8161;-33.910;151.156;2023-10-13T14:51:20;2.33;;;0.40;;
16113;SDS011;8161;-33.910;151.156;2023-10-13T14:53:47;1.73;;;0.55;;
16113;SDS011;8161;-33.910;151.156;2023-10-13T14:56:16;3.45;;;0.47;;
16113;SDS011;8161;-33.910;151.156;2023-10-13T14:58:43;1.83;;;0.57;;
16113;SDS011;8161;-33.910;151.156;2023-10-13T15:01:15;3.10;;;0.82;;
16113;SDS011;8161;-33.910;151.156;2023-10-13T15:03:44;1.35;;;0.47;;
16113;SDS011;8161;-33.910;151.156;2023-10-13T15:08:50;1.95;;;0.60;;
16113;SDS011;8161;-33.910;151.156;2023-10-13T15:11:21;1.10;;;0.30;;
16113;SDS011;8161;-33.910;151.156;2023-10-13T15:14:03;1.90;;;0.50;;
16113;SDS011;8161;-33.910;151.156;2023-10-13T15:16:32;0.65;;;0.20;;
16113;SDS011;8161;-33.910;151.156;2023-10-13T15:18:59;1.10;;;0.45;;
16113;SDS011;8161;-33.910;151.156;2023-10-13T15:21:30;1.77;;;0.30;;
16113;SDS011;8161;-33.910;151.156;2023-10-13T15:24:00;1.00;;;0.40;;
16113;SDS011;8161;-33.910;151.156;2023-10-13T15:26:45;2.80;;;0.70;;
16113;SDS011;8161;-33.910;151.156;2023-10-13T15:29:18;1.85;;;0.40;;
16113;SDS011;8161;-33.910;151.156;2023-10-13T15:31:52;0.90;;;0.47;;